sensor_id;sensor_type;location;lat;lon;timestamp;pressure;altitude;pressure_sealevel;temperature
65765;BMP180;52915;53.718;19.946;2022-09-29T00:01:54;98658.80;;;10.00
65765;BMP180;52915;53.718;19.946;2022-09-29T00:06:58;98657.60;;;9.90
65765;BMP180;52915;53.718;19.946;2022-09-29T00:12:03;98656.00;;;9.90
65765;BMP180;52915;53.718;19.946;2022-09-29T00:17:07;98653.00;;;10.00
65765;BMP180;52915;53.718;19.946;2022-09-29T00:22:11;98650.80;;;10.20
65765;BMP180;52915;53.718;19.946;2022-09-29T00:27:17;98649.40;;;10.20
65765;BMP180;52915;53.718;19.946;2022-09-29T00:32:21;98649.20;;;10.02
65765;BMP180;52915;53.718;19.946;2022-09-29T00:37:25;98650.20;;;10.10
65765;BMP180;52915;53.718;19.946;2022-09-29T00:42:29;98651.60;;;10.20
65765;BMP180;52915;53.718;19.946;2022-09-29T00:47:36;98652.00;;;10.20
65765;BMP180;52915;53.718;19.946;2022-09-29T00:52:57;98653.80;;;10.08
65765;BMP180;52915;53.718;19.946;2022-09-29T01:03:41;98655.60;;;10.20
65765;BMP180;52915;53.718;19.946;2022-09-29T01:08:50;98654.60;;;10.10
65765;BMP180;52915;53.718;19.946;2022-09-29T01:13:59;98655.40;;;9.90
65765;BMP180;52915;53.718;19.946;2022-09-29T01:19:14;98658.40;;;9.80
65765;BMP180;52915;53.718;19.946;2022-09-29T01:46:56;98656.20;;;9.60
65765;BMP180;52915;53.718;19.946;2022-09-29T01:52:11;98661.00;;;9.70
65765;BMP180;52915;53.718;19.946;2022-09-29T01:57:53;98659.00;;;9.60
65765;BMP180;52915;53.718;19.946;2022-09-29T02:08:39;98662.40;;;9.30
65765;BMP180;52915;53.718;19.946;2022-09-29T02:19:31;98674.40;;;9.60
65765;BMP180;52915;53.718;19.946;2022-09-29T02:24:36;98679.40;;;9.80
65765;BMP180;52915;53.718;19.946;2022-09-29T02:29:41;98679.00;;;9.74
65765;BMP180;52915;53.718;19.946;2022-09-29T02:34:48;98682.00;;;9.70
65765;BMP180;52915;53.718;19.946;2022-09-29T02:40:16;98687.60;;;9.86
65765;BMP180;52915;53.718;19.946;2022-09-29T02:51:09;98702.00;;;9.90
65765;BMP180;52915;53.718;19.946;2022-09-29T03:01:51;98712.60;;;9.90
65765;BMP180;52915;53.718;19.946;2022-09-29T03:06:56;98716.20;;;10.00
65765;BMP180;52915;53.718;19.946;2022-09-29T03:12:00;98719.60;;;9.92
65765;BMP180;52915;53.718;19.946;2022-09-29T03:17:04;98722.00;;;9.82
65765;BMP180;52915;53.718;19.946;2022-09-29T03:22:08;98726.60;;;9.90
65765;BMP180;52915;53.718;19.946;2022-09-29T03:27:12;98729.20;;;9.72
65765;BMP180;52915;53.718;19.946;2022-09-29T03:32:17;98738.60;;;9.80
65765;BMP180;52915;53.718;19.946;2022-09-29T03:37:21;98743.40;;;9.80
65765;BMP180;52915;53.718;19.946;2022-09-29T03:42:24;98741.20;;;9.70
65765;BMP180;52915;53.718;19.946;2022-09-29T03:47:30;98738.80;;;9.60
65765;BMP180;52915;53.718;19.946;2022-09-29T03:52:34;98741.80;;;9.60
65765;BMP180;52915;53.718;19.946;2022-09-29T03:57:38;98750.00;;;9.78
65765;BMP180;52915;53.718;19.946;2022-09-29T04:02:42;98750.60;;;9.80
65765;BMP180;52915;53.718;19.946;2022-09-29T04:07:47;98748.00;;;9.70
65765;BMP180;52915;53.718;19.946;2022-09-29T04:12:51;98750.60;;;9.50
65765;BMP180;52915;53.718;19.946;2022-09-29T04:17:55;98751.80;;;9.60
65765;BMP180;52915;53.718;19.946;2022-09-29T04:22:59;98759.80;;;9.70
65765;BMP180;52915;53.718;19.946;2022-09-29T04:28:09;98760.80;;;9.82
65765;BMP180;52915;53.718;19.946;2022-09-29T04:33:13;98766.60;;;9.80
65765;BMP180;52915;53.718;19.946;2022-09-29T04:38:17;98772.80;;;9.70
65765;BMP180;52915;53.718;19.946;2022-09-29T04:43:21;98777.60;;;9.80
65765;BMP180;52915;53.718;19.946;2022-09-29T04:48:25;98780.20;;;9.76
65765;BMP180;52915;53.718;19.946;2022-09-29T04:53:29;98778.00;;;9.70
65765;BMP180;52915;53.718;19.946;2022-09-29T04:58:34;98792.20;;;9.80
65765;BMP180;52915;53.718;19.946;2022-09-29T05:03:39;98798.00;;;9.90
65765;BMP180;52915;53.718;19.946;2022-09-29T05:08:43;98795.00;;;9.80
65765;BMP180;52915;53.718;19.946;2022-09-29T05:13:49;98796.40;;;9.80
65765;BMP180;52915;53.718;19.946;2022-09-29T05:18:57;98801.60;;;9.98
65765;BMP180;52915;53.718;19.946;2022-09-29T05:24:02;98803.00;;;10.00
65765;BMP180;52915;53.718;19.946;2022-09-29T05:29:06;98806.40;;;9.90
65765;BMP180;52915;53.718;19.946;2022-09-29T05:34:11;98814.80;;;9.90
65765;BMP180;52915;53.718;19.946;2022-09-29T05:39:15;98817.40;;;10.10
65765;BMP180;52915;53.718;19.946;2022-09-29T05:44:19;98813.80;;;10.06
65765;BMP180;52915;53.718;19.946;2022-09-29T05:49:23;98823.80;;;9.90
65765;BMP180;52915;53.718;19.946;2022-09-29T05:54:27;98827.20;;;9.88
65765;BMP180;52915;53.718;19.946;2022-09-29T05:59:31;98829.80;;;9.92
65765;BMP180;52915;53.718;19.946;2022-09-29T06:04:35;98834.00;;;10.00
65765;BMP180;52915;53.718;19.946;2022-09-29T06:09:42;98843.40;;;9.90
65765;BMP180;52915;53.718;19.946;2022-09-29T06:14:46;98844.60;;;10.00
65765;BMP180;52915;53.718;19.946;2022-09-29T06:19:50;98850.60;;;10.00
65765;BMP180;52915;53.718;19.946;2022-09-29T06:24:55;98855.80;;;10.00
65765;BMP180;52915;53.718;19.946;2022-09-29T06:29:59;98858.80;;;10.12
65765;BMP180;52915;53.718;19.946;2022-09-29T06:35:04;98868.80;;;10.12
65765;BMP180;52915;53.718;19.946;2022-09-29T06:40:26;98870.80;;;10.10
65765;BMP180;52915;53.718;19.946;2022-09-29T06:45:30;98870.20;;;10.20
65765;BMP180;52915;53.718;19.946;2022-09-29T06:50:34;98874.20;;;10.10
65765;BMP180;52915;53.718;19.946;2022-09-29T06:55:39;98878.20;;;10.00
65765;BMP180;52915;53.718;19.946;2022-09-29T07:00:43;98880.40;;;10.10
65765;BMP180;52915;53.718;19.946;2022-09-29T07:05:51;98889.00;;;10.20
65765;BMP180;52915;53.718;19.946;2022-09-29T07:11:15;98891.20;;;10.14
65765;BMP180;52915;53.718;19.946;2022-09-29T07:16:19;98896.00;;;10.30
65765;BMP180;52915;53.718;19.946;2022-09-29T07:21:26;98903.80;;;10.60
65765;BMP180;52915;53.718;19.946;2022-09-29T07:26:31;98906.00;;;10.70
65765;BMP180;52915;53.718;19.946;2022-09-29T07:31:35;98911.40;;;10.70
65765;BMP180;52915;53.718;19.946;2022-09-29T07:36:53;98911.80;;;10.90
65765;BMP180;52915;53.718;19.946;2022-09-29T07:41:57;98916.60;;;10.90
65765;BMP180;52915;53.718;19.946;2022-09-29T07:47:01;98920.40;;;11.10
65765;BMP180;52915;53.718;19.946;2022-09-29T07:52:05;98923.20;;;11.50
65765;BMP180;52915;53.718;19.946;2022-09-29T07:57:09;98924.40;;;11.54
65765;BMP180;52915;53.718;19.946;2022-09-29T08:02:13;98927.00;;;11.80
65765;BMP180;52915;53.718;19.946;2022-09-29T08:07:17;98933.40;;;11.70
65765;BMP180;52915;53.718;19.946;2022-09-29T08:12:21;98929.40;;;11.70
65765;BMP180;52915;53.718;19.946;2022-09-29T08:17:29;98941.20;;;11.80
65765;BMP180;52915;53.718;19.946;2022-09-29T08:22:32;98938.80;;;11.90
65765;BMP180;52915;53.718;19.946;2022-09-29T08:27:36;98933.60;;;12.36
65765;BMP180;52915;53.718;19.946;2022-09-29T08:32:53;98939.60;;;13.00
65765;BMP180;52915;53.718;19.946;2022-09-29T08:37:57;98940.20;;;13.66
65765;BMP180;52915;53.718;19.946;2022-09-29T08:43:36;98963.60;;;14.70
65765;BMP180;52915;53.718;19.946;2022-09-29T08:48:44;98964.20;;;14.60
65765;BMP180;52915;53.718;19.946;2022-09-29T08:54:19;98976.20;;;14.88
65765;BMP180;52915;53.718;19.946;2022-09-29T08:59:39;98961.60;;;15.34
65765;BMP180;52915;53.718;19.946;2022-09-29T09:10:41;98977.20;;;16.30
65765;BMP180;52915;53.718;19.946;2022-09-29T09:21:18;99007.00;;;15.60
65765;BMP180;52915;53.718;19.946;2022-09-29T09:26:40;99014.80;;;15.34
65765;BMP180;52915;53.718;19.946;2022-09-29T09:32:32;99018.80;;;15.30
65765;BMP180;52915;53.718;19.946;2022-09-29T09:37:40;99026.60;;;15.32
65765;BMP180;52915;53.718;19.946;2022-09-29T09:43:04;99034.00;;;14.94
65765;BMP180;52915;53.718;19.946;2022-09-29T09:48:20;99040.80;;;14.50
65765;BMP180;52915;53.718;19.946;2022-09-29T09:53:39;99042.40;;;14.30
65765;BMP180;52915;53.718;19.946;2022-09-29T10:04:12;99052.60;;;15.30
65765;BMP180;52915;53.718;19.946;2022-09-29T10:09:17;99036.20;;;15.70
65765;BMP180;52915;53.718;19.946;2022-09-29T10:14:25;99044.00;;;16.30
65765;BMP180;52915;53.718;19.946;2022-09-29T10:20:05;99062.60;;;16.60
65765;BMP180;52915;53.718;19.946;2022-09-29T10:25:18;99073.20;;;16.50
65765;BMP180;52915;53.718;19.946;2022-09-29T10:30:32;99083.00;;;15.90
65765;BMP180;52915;53.718;19.946;2022-09-29T10:35:41;99093.40;;;15.60
65765;BMP180;52915;53.718;19.946;2022-09-29T10:41:05;99099.40;;;15.20
65765;BMP180;52915;53.718;19.946;2022-09-29T10:46:53;99108.00;;;14.74
65765;BMP180;52915;53.718;19.946;2022-09-29T10:52:15;99112.40;;;14.60
65765;BMP180;52915;53.718;19.946;2022-09-29T10:57:28;99102.00;;;15.14
65765;BMP180;52915;53.718;19.946;2022-09-29T11:02:36;99122.40;;;16.40
65765;BMP180;52915;53.718;19.946;2022-09-29T11:07:46;99125.80;;;16.30
65765;BMP180;52915;53.718;19.946;2022-09-29T11:12:50;99133.40;;;16.46
65765;BMP180;52915;53.718;19.946;2022-09-29T11:17:56;99138.00;;;16.46
65765;BMP180;52915;53.718;19.946;2022-09-29T11:23:28;99142.20;;;15.70
65765;BMP180;52915;53.718;19.946;2022-09-29T11:40:01;99141.00;;;14.78
65765;BMP180;52915;53.718;19.946;2022-09-29T11:45:10;99146.60;;;15.62
65765;BMP180;52915;53.718;19.946;2022-09-29T11:56:45;99160.80;;;16.70
65765;BMP180;52915;53.718;19.946;2022-09-29T12:02:25;99172.60;;;16.70
65765;BMP180;52915;53.718;19.946;2022-09-29T12:08:13;99173.40;;;16.20
65765;BMP180;52915;53.718;19.946;2022-09-29T12:13:50;99182.20;;;15.80
65765;BMP180;52915;53.718;19.946;2022-09-29T12:19:03;99186.40;;;15.40
65765;BMP180;52915;53.718;19.946;2022-09-29T12:35:04;99200.80;;;15.70
65765;BMP180;52915;53.718;19.946;2022-09-29T12:40:37;99203.80;;;15.70
65765;BMP180;52915;53.718;19.946;2022-09-29T12:46:14;99209.40;;;15.60
65765;BMP180;52915;53.718;19.946;2022-09-29T12:51:35;99230.40;;;15.18
65765;BMP180;52915;53.718;19.946;2022-09-29T12:57:07;99229.00;;;14.62
65765;BMP180;52915;53.718;19.946;2022-09-29T13:13:50;99247.40;;;13.90
65765;BMP180;52915;53.718;19.946;2022-09-29T13:25:38;99240.40;;;13.90
65765;BMP180;52915;53.718;19.946;2022-09-29T13:30:46;99246.40;;;13.90
65765;BMP180;52915;53.718;19.946;2022-09-29T13:35:52;99251.20;;;13.90
65765;BMP180;52915;53.718;19.946;2022-09-29T13:41:33;99256.00;;;13.80
65765;BMP180;52915;53.718;19.946;2022-09-29T13:46:43;99260.60;;;13.70
65765;BMP180;52915;53.718;19.946;2022-09-29T13:52:03;99262.40;;;13.60
65765;BMP180;52915;53.718;19.946;2022-09-29T13:57:24;99267.60;;;13.54
65765;BMP180;52915;53.718;19.946;2022-09-29T14:02:46;99276.80;;;13.30
65765;BMP180;52915;53.718;19.946;2022-09-29T14:28:51;99244.40;;;16.08
65765;BMP180;52915;53.718;19.946;2022-09-29T14:33:56;99301.40;;;17.04
65765;BMP180;52915;53.718;19.946;2022-09-29T14:39:03;99293.60;;;16.02
65765;BMP180;52915;53.718;19.946;2022-09-29T14:44:34;99312.40;;;15.40
65765;BMP180;52915;53.718;19.946;2022-09-29T14:56:31;99326.60;;;13.70
65765;BMP180;52915;53.718;19.946;2022-09-29T15:07:24;99339.40;;;12.80
65765;BMP180;52915;53.718;19.946;2022-09-29T15:12:31;99343.80;;;12.70
65765;BMP180;52915;53.718;19.946;2022-09-29T15:18:12;99350.00;;;12.40
65765;BMP180;52915;53.718;19.946;2022-09-29T15:23:57;99357.80;;;12.20
65765;BMP180;52915;53.718;19.946;2022-09-29T15:28:58;99365.60;;;12.12
65765;BMP180;52915;53.718;19.946;2022-09-29T15:34:03;99369.00;;;12.00
65765;BMP180;52915;53.718;19.946;2022-09-29T15:44:35;99384.60;;;11.90
65765;BMP180;52915;53.718;19.946;2022-09-29T15:49:49;99392.40;;;11.80
65765;BMP180;52915;53.718;19.946;2022-09-29T15:54:57;99404.00;;;11.66
65765;BMP180;52915;53.718;19.946;2022-09-29T16:00:02;99410.00;;;11.70
65765;BMP180;52915;53.718;19.946;2022-09-29T16:05:12;99411.20;;;11.60
65765;BMP180;52915;53.718;19.946;2022-09-29T16:10:21;99419.00;;;11.60
65765;BMP180;52915;53.718;19.946;2022-09-29T16:15:42;99419.00;;;11.70
65765;BMP180;52915;53.718;19.946;2022-09-29T16:20:49;99419.40;;;11.40
65765;BMP180;52915;53.718;19.946;2022-09-29T16:26:45;99419.40;;;11.10
65765;BMP180;52915;53.718;19.946;2022-09-29T16:31:51;99420.60;;;10.92
65765;BMP180;52915;53.718;19.946;2022-09-29T16:37:00;99424.40;;;10.90
65765;BMP180;52915;53.718;19.946;2022-09-29T16:42:05;99429.60;;;10.70
65765;BMP180;52915;53.718;19.946;2022-09-29T16:47:19;99427.80;;;10.40
65765;BMP180;52915;53.718;19.946;2022-09-29T16:57:31;99436.60;;;10.20
65765;BMP180;52915;53.718;19.946;2022-09-29T17:02:36;99446.00;;;10.20
65765;BMP180;52915;53.718;19.946;2022-09-29T17:07:41;99438.80;;;10.10
65765;BMP180;52915;53.718;19.946;2022-09-29T17:12:46;99441.40;;;9.90
65765;BMP180;52915;53.718;19.946;2022-09-29T17:17:51;99443.60;;;9.70
65765;BMP180;52915;53.718;19.946;2022-09-29T17:22:56;99448.20;;;9.70
65765;BMP180;52915;53.718;19.946;2022-09-29T17:28:03;99454.20;;;9.80
65765;BMP180;52915;53.718;19.946;2022-09-29T17:33:18;99455.60;;;9.70
65765;BMP180;52915;53.718;19.946;2022-09-29T17:38:22;99459.40;;;9.50
65765;BMP180;52915;53.718;19.946;2022-09-29T17:43:27;99460.00;;;9.20
65765;BMP180;52915;53.718;19.946;2022-09-29T17:48:34;99460.80;;;9.00
65765;BMP180;52915;53.718;19.946;2022-09-29T17:53:38;99462.80;;;9.00
65765;BMP180;52915;53.718;19.946;2022-09-29T17:58:44;99474.60;;;9.10
65765;BMP180;52915;53.718;19.946;2022-09-29T18:03:49;99472.20;;;9.00
65765;BMP180;52915;53.718;19.946;2022-09-29T18:08:56;99476.60;;;8.80
65765;BMP180;52915;53.718;19.946;2022-09-29T18:14:00;99477.40;;;8.62
65765;BMP180;52915;53.718;19.946;2022-09-29T18:19:14;99480.00;;;8.60
65765;BMP180;52915;53.718;19.946;2022-09-29T18:24:19;99483.80;;;8.80
65765;BMP180;52915;53.718;19.946;2022-09-29T18:29:25;99488.60;;;8.80
65765;BMP180;52915;53.718;19.946;2022-09-29T18:34:29;99490.20;;;8.60
65765;BMP180;52915;53.718;19.946;2022-09-29T18:39:36;99495.60;;;8.42
65765;BMP180;52915;53.718;19.946;2022-09-29T18:44:40;99503.40;;;8.40
65765;BMP180;52915;53.718;19.946;2022-09-29T18:49:44;99507.40;;;8.50
65765;BMP180;52915;53.718;19.946;2022-09-29T18:54:49;99509.40;;;8.40
65765;BMP180;52915;53.718;19.946;2022-09-29T18:59:53;99511.20;;;8.20
65765;BMP180;52915;53.718;19.946;2022-09-29T19:04:57;99519.60;;;8.10
65765;BMP180;52915;53.718;19.946;2022-09-29T19:10:02;99531.00;;;8.10
65765;BMP180;52915;53.718;19.946;2022-09-29T19:15:19;99538.80;;;8.30
65765;BMP180;52915;53.718;19.946;2022-09-29T19:20:27;99551.80;;;8.40
65765;BMP180;52915;53.718;19.946;2022-09-29T19:25:36;99548.60;;;8.30
65765;BMP180;52915;53.718;19.946;2022-09-29T19:30:44;99555.40;;;8.10
65765;BMP180;52915;53.718;19.946;2022-09-29T19:35:53;99559.00;;;7.90
65765;BMP180;52915;53.718;19.946;2022-09-29T19:40:58;99558.60;;;8.00
65765;BMP180;52915;53.718;19.946;2022-09-29T19:46:08;99560.60;;;8.10
65765;BMP180;52915;53.718;19.946;2022-09-29T19:51:16;99567.00;;;7.98
65765;BMP180;52915;53.718;19.946;2022-09-29T20:01:50;99571.00;;;7.52
65765;BMP180;52915;53.718;19.946;2022-09-29T20:06:57;99573.60;;;7.50
65765;BMP180;52915;53.718;19.946;2022-09-29T20:12:01;99579.80;;;7.60
65765;BMP180;52915;53.718;19.946;2022-09-29T20:17:05;99582.40;;;7.50
65765;BMP180;52915;53.718;19.946;2022-09-29T20:22:09;99579.60;;;7.28
65765;BMP180;52915;53.718;19.946;2022-09-29T20:27:14;99582.00;;;7.10
65765;BMP180;52915;53.718;19.946;2022-09-29T20:32:18;99584.00;;;7.10
65765;BMP180;52915;53.718;19.946;2022-09-29T20:37:23;99591.80;;;7.30
65765;BMP180;52915;53.718;19.946;2022-09-29T20:42:28;99597.60;;;7.30
65765;BMP180;52915;53.718;19.946;2022-09-29T20:47:32;99603.00;;;7.10
65765;BMP180;52915;53.718;19.946;2022-09-29T20:52:37;99608.00;;;7.00
65765;BMP180;52915;53.718;19.946;2022-09-29T20:57:41;99612.60;;;6.94
65765;BMP180;52915;53.718;19.946;2022-09-29T21:02:48;99619.80;;;7.10
65765;BMP180;52915;53.718;19.946;2022-09-29T21:07:52;99625.60;;;7.00
65765;BMP180;52915;53.718;19.946;2022-09-29T21:12:58;99634.80;;;6.80
65765;BMP180;52915;53.718;19.946;2022-09-29T21:18:05;99641.40;;;6.64
65765;BMP180;52915;53.718;19.946;2022-09-29T21:23:09;99644.80;;;6.70
65765;BMP180;52915;53.718;19.946;2022-09-29T21:28:15;99644.80;;;6.80
65765;BMP180;52915;53.718;19.946;2022-09-29T21:33:20;99646.20;;;6.80
65765;BMP180;52915;53.718;19.946;2022-09-29T21:38:25;99646.40;;;6.60
65765;BMP180;52915;53.718;19.946;2022-09-29T21:43:34;99648.20;;;6.40
65765;BMP180;52915;53.718;19.946;2022-09-29T21:48:40;99655.60;;;6.42
65765;BMP180;52915;53.718;19.946;2022-09-29T21:53:45;99661.60;;;6.60
65765;BMP180;52915;53.718;19.946;2022-09-29T21:58:52;99655.40;;;6.50
65765;BMP180;52915;53.718;19.946;2022-09-29T22:03:57;99653.20;;;6.40
65765;BMP180;52915;53.718;19.946;2022-09-29T22:09:04;99654.20;;;6.20
65765;BMP180;52915;53.718;19.946;2022-09-29T22:14:12;99657.60;;;6.10
65765;BMP180;52915;53.718;19.946;2022-09-29T22:19:17;99655.60;;;6.20
65765;BMP180;52915;53.718;19.946;2022-09-29T22:24:27;99648.00;;;6.20
65765;BMP180;52915;53.718;19.946;2022-09-29T22:29:31;99653.60;;;6.10
65765;BMP180;52915;53.718;19.946;2022-09-29T22:34:35;99651.00;;;5.94
65765;BMP180;52915;53.718;19.946;2022-09-29T22:39:39;99665.20;;;5.98
65765;BMP180;52915;53.718;19.946;2022-09-29T22:44:44;99686.20;;;6.00
65765;BMP180;52915;53.718;19.946;2022-09-29T22:49:48;99686.20;;;6.10
65765;BMP180;52915;53.718;19.946;2022-09-29T22:54:52;99692.60;;;6.00
65765;BMP180;52915;53.718;19.946;2022-09-29T22:59:56;99704.40;;;5.80
65765;BMP180;52915;53.718;19.946;2022-09-29T23:04:59;99714.80;;;5.70
65765;BMP180;52915;53.718;19.946;2022-09-29T23:10:04;99714.00;;;5.70
65765;BMP180;52915;53.718;19.946;2022-09-29T23:15:09;99719.40;;;5.80
65765;BMP180;52915;53.718;19.946;2022-09-29T23:20:14;99722.20;;;5.90
65765;BMP180;52915;53.718;19.946;2022-09-29T23:25:18;99727.40;;;5.80
65765;BMP180;52915;53.718;19.946;2022-09-29T23:30:22;99730.60;;;5.70
65765;BMP180;52915;53.718;19.946;2022-09-29T23:35:26;99729.20;;;5.70
65765;BMP180;52915;53.718;19.946;2022-09-29T23:40:30;99732.00;;;5.80
65765;BMP180;52915;53.718;19.946;2022-09-29T23:45:34;99739.80;;;5.70
65765;BMP180;52915;53.718;19.946;2022-09-29T23:50:38;99738.80;;;5.46
65765;BMP180;52915;53.718;19.946;2022-09-29T23:55:42;99739.20;;;5.30
